createdAt,value
2018-04-29T00:02:59.756Z,3.37
2018-04-29T00:12:57.992Z,3.36
2018-04-29T00:22:56.238Z,3.37
2018-04-29T00:32:51.403Z,3.36
2018-04-29T00:42:49.236Z,3.36
2018-04-29T00:52:46.203Z,3.36
2018-04-29T01:02:44.961Z,3.36
2018-04-29T01:12:39.518Z,3.36
2018-04-29T01:22:37.076Z,3.36
2018-04-29T01:32:35.942Z,3.36
2018-04-29T01:42:32.840Z,3.36
2018-04-29T01:52:30.449Z,3.36
2018-04-29T02:02:29.297Z,3.36
2018-04-29T02:12:27.715Z,3.35
2018-04-29T02:22:25.046Z,3.35
2018-04-29T02:32:21.571Z,3.34
2018-04-29T02:42:19.825Z,3.34
2018-04-29T02:52:16.502Z,3.34
2018-04-29T03:02:12.660Z,3.34
2018-04-29T03:12:10.292Z,3.34
2018-04-29T03:22:06.873Z,3.34
2018-04-29T03:32:04.671Z,3.34
2018-04-29T03:42:01.656Z,3.34
2018-04-29T03:51:57.586Z,3.34
2018-04-29T04:01:54.206Z,3.34
2018-04-29T04:11:52.496Z,3.34
2018-04-29T04:21:50.360Z,3.34
2018-04-29T04:31:49.136Z,3.34
2018-04-29T04:41:47.271Z,3.35
2018-04-29T04:51:43.472Z,3.36
2018-04-29T05:01:42.298Z,3.36
2018-04-29T05:11:39.593Z,3.37
2018-04-29T05:21:35.599Z,3.37
2018-04-29T05:31:34.095Z,3.37
2018-04-29T05:41:32.628Z,3.38
2018-04-29T05:51:31.042Z,3.39
2018-04-29T06:01:20.656Z,3.39
2018-04-29T06:11:15.603Z,3.40
2018-04-29T06:21:07.727Z,3.40
2018-04-29T06:31:03.455Z,3.41
2018-04-29T06:40:57.398Z,3.42
2018-04-29T06:50:53.112Z,3.42
2018-04-29T07:00:51.916Z,3.43
2018-04-29T07:10:47.240Z,3.43
2018-04-29T07:20:45.219Z,3.44
2018-04-29T07:30:39.904Z,3.44
2018-04-29T07:40:30.031Z,3.45
2018-04-29T07:50:26.561Z,3.44
2018-04-29T08:00:24.666Z,3.43
2018-04-29T08:10:17.768Z,3.43
2018-04-29T08:20:11.264Z,3.46
2018-04-29T08:29:58.258Z,3.44
2018-04-29T08:39:49.546Z,3.43
2018-04-29T08:49:46.813Z,3.43
2018-04-29T08:59:43.060Z,3.43
2018-04-29T09:09:22.795Z,3.43
2018-04-29T09:19:00.464Z,3.42
2018-04-29T09:28:38.454Z,3.43
2018-04-29T09:38:16.560Z,3.43
2018-04-29T09:47:53.195Z,3.43
2018-04-29T09:57:30.896Z,3.43
2018-04-29T10:07:08.770Z,3.43
2018-04-29T10:16:46.783Z,3.43
2018-04-29T10:26:25.124Z,3.43
2018-04-29T10:36:03.309Z,3.43
2018-04-29T10:45:41.530Z,3.43
2018-04-29T10:55:19.613Z,3.43
2018-04-29T11:04:57.406Z,3.43
2018-04-29T11:14:35.325Z,3.43
2018-04-29T11:24:13.042Z,3.43
2018-04-29T11:33:51.151Z,3.43
2018-04-29T11:43:29.579Z,3.43
2018-04-29T11:53:07.821Z,3.43
2018-04-29T12:02:50.111Z,3.43
2018-04-29T12:12:20.257Z,3.43
2018-04-29T12:22:02.094Z,3.43
2018-04-29T12:31:29.221Z,3.43
2018-04-29T12:41:07.709Z,3.43
2018-04-29T12:50:45.910Z,3.43
2018-04-29T13:00:23.180Z,3.43
2018-04-29T13:09:59.589Z,3.43
2018-04-29T13:19:38.061Z,3.43
2018-04-29T13:29:12.625Z,3.43
2018-04-29T13:38:51.952Z,3.43
2018-04-29T13:48:20.292Z,3.43
2018-04-29T13:58:00.508Z,3.43
2018-04-29T14:07:31.028Z,3.43
2018-04-29T14:17:06.899Z,3.42
2018-04-29T14:26:43.370Z,3.42
2018-04-29T14:36:20.433Z,3.42
2018-04-29T14:45:57.540Z,3.42
2018-04-29T14:55:34.611Z,3.42
2018-04-29T15:05:18.704Z,3.43
2018-04-29T15:14:58.966Z,3.43
2018-04-29T15:24:32.054Z,3.43
2018-04-29T15:34:05.939Z,3.42
2018-04-29T15:43:40.643Z,3.42
2018-04-29T15:53:16.690Z,3.42
2018-04-29T16:02:53.575Z,3.42
2018-04-29T16:12:32.216Z,3.42
2018-04-29T16:22:27.490Z,3.42
2018-04-29T16:32:05.601Z,3.42
2018-04-29T16:41:41.421Z,3.43
2018-04-29T16:51:18.345Z,3.43
2018-04-29T17:00:55.818Z,3.43
2018-04-29T17:10:29.460Z,3.45
2018-04-29T17:20:25.150Z,3.46
2018-04-29T17:30:21.620Z,3.45
2018-04-29T17:40:18.440Z,3.44
2018-04-29T17:50:12.476Z,3.44
2018-04-29T18:00:08.541Z,3.43
2018-04-29T18:10:03.635Z,3.43
2018-04-29T18:19:56.808Z,3.43
2018-04-29T18:29:53.329Z,3.43
2018-04-29T18:39:50.343Z,3.42
2018-04-29T18:49:45.294Z,3.42
2018-04-29T18:59:39.465Z,3.42
2018-04-29T19:09:36.868Z,3.42
2018-04-29T19:19:34.391Z,3.42
2018-04-29T19:29:32.748Z,3.41
2018-04-29T19:39:28.061Z,3.41
2018-04-29T19:49:24.650Z,3.41
2018-04-29T19:59:20.821Z,3.41
2018-04-29T20:09:17.019Z,3.41
2018-04-29T20:19:13.075Z,3.40
2018-04-29T20:29:07.569Z,3.40
2018-04-29T20:39:03.902Z,3.40
2018-04-29T20:48:59.684Z,3.40
2018-04-29T20:58:55.142Z,3.40
2018-04-29T21:08:51.730Z,3.40
2018-04-29T21:18:47.487Z,3.40
2018-04-29T21:28:43.921Z,3.40
2018-04-29T21:38:37.023Z,3.39
2018-04-29T21:48:33.155Z,3.39
2018-04-29T21:58:27.327Z,3.39
2018-04-29T22:08:22.309Z,3.39
2018-04-29T22:18:19.329Z,3.39
2018-04-29T22:28:16.735Z,3.39
2018-04-29T22:38:11.583Z,3.39
2018-04-29T22:47:57.886Z,3.39
2018-04-29T22:57:54.148Z,3.39
2018-04-29T23:07:50.364Z,3.39
2018-04-29T23:17:47.706Z,3.38
2018-04-29T23:27:44.633Z,3.38
2018-04-29T23:37:40.274Z,3.38
2018-04-29T23:47:36.929Z,3.38
2018-04-29T23:57:32.019Z,3.38
